NCAR-RAP Real-Time Weather Data

Output produced by METARs form (26 May 2022  08:57 UTC)
found at http://weather.rap.ucar.edu/surface/
 
KVPZ 260756Z AUTO 19009KT 10SM BKN033 BKN043 OVC110 21/18 A2982 RMK AO2 RAE0659 SLP092 P0001 T02110183
KVPZ 260656Z AUTO 19008G19KT 10SM -RA SCT018 SCT028 BKN040 21/18 A2982 RMK AO2 RAB24 SLP092 P0000 T02060183
KVPZ 260556Z AUTO 18008KT 10SM BKN019 OVC025 21/18 A2983 RMK AO2 SLP096 T02060183 10228 20206 402830133 57000